createdAt,value
2023-05-14T00:00:26.135Z,409
2023-05-14T00:01:26.544Z,408
2023-05-14T00:03:24.077Z,409
2023-05-14T00:04:24.543Z,419
2023-05-14T00:05:24.326Z,409
2023-05-14T00:06:24.830Z,406
2023-05-14T00:07:23.961Z,410
2023-05-14T00:08:24.150Z,417
2023-05-14T00:09:24.168Z,409
2023-05-14T00:10:24.824Z,411
2023-05-14T00:11:24.548Z,400
2023-05-14T00:12:24.729Z,403
2023-05-14T00:13:24.773Z,407
2023-05-14T00:14:24.822Z,408
2023-05-14T00:15:24.503Z,423
2023-05-14T00:16:24.550Z,417
2023-05-14T00:17:24.634Z,419
2023-05-14T00:18:24.050Z,407
2023-05-14T00:19:24.672Z,401
2023-05-14T00:20:24.435Z,412
2023-05-14T00:21:24.844Z,406
2023-05-14T00:22:24.038Z,416
2023-05-14T00:23:23.886Z,424
2023-05-14T00:24:24.095Z,410
2023-05-14T00:25:24.066Z,414
2023-05-14T00:26:24.171Z,403
2023-05-14T00:27:24.282Z,408
2023-05-14T00:28:24.385Z,410
2023-05-14T00:29:24.371Z,412
2023-05-14T00:30:24.839Z,419
2023-05-14T00:31:23.884Z,408
2023-05-14T00:32:24.141Z,410
2023-05-14T00:33:24.323Z,408
2023-05-14T00:34:24.177Z,407
2023-05-14T00:35:24.297Z,420
2023-05-14T00:36:24.224Z,422
2023-05-14T00:37:24.341Z,410
2023-05-14T00:38:24.753Z,406
2023-05-14T00:39:23.830Z,417
2023-05-14T00:40:24.458Z,428
2023-05-14T00:41:24.482Z,421
2023-05-14T00:42:24.270Z,412
2023-05-14T00:43:24.466Z,410
2023-05-14T00:44:24.272Z,408
2023-05-14T00:45:24.388Z,410
2023-05-14T00:46:24.351Z,423
2023-05-14T00:47:24.649Z,418
2023-05-14T00:48:24.527Z,422
2023-05-14T00:50:24.732Z,421
2023-05-14T00:51:24.789Z,422
2023-05-14T00:53:24.277Z,414
2023-05-14T00:54:24.412Z,405
2023-05-14T00:55:24.614Z,403
2023-05-14T00:56:24.286Z,405
2023-05-14T00:57:24.346Z,416
2023-05-14T01:00:25.291Z,415
2023-05-14T01:02:23.999Z,412
2023-05-14T01:03:24.376Z,403
2023-05-14T01:05:29.077Z,412
2023-05-14T01:06:24.205Z,414
2023-05-14T01:07:29.252Z,417
2023-05-14T01:08:24.480Z,415
2023-05-14T01:09:24.462Z,420
2023-05-14T01:10:24.652Z,411
2023-05-14T01:11:24.126Z,413
2023-05-14T01:12:24.051Z,418
2023-05-14T01:13:23.773Z,416
2023-05-14T01:14:24.546Z,419
2023-05-14T01:15:32.298Z,414
2023-05-14T01:16:24.253Z,419
2023-05-14T01:17:24.707Z,412
2023-05-14T01:18:24.681Z,410
2023-05-14T01:19:24.302Z,419
2023-05-14T01:20:24.860Z,422
2023-05-14T01:21:24.409Z,411
2023-05-14T01:22:23.965Z,422
2023-05-14T01:23:24.037Z,419
2023-05-14T01:24:24.092Z,428
2023-05-14T01:25:24.269Z,414
2023-05-14T01:26:24.214Z,413
2023-05-14T01:27:24.088Z,407
2023-05-14T01:28:23.988Z,413
2023-05-14T01:30:24.667Z,424
2023-05-14T01:31:24.044Z,429
2023-05-14T01:32:24.642Z,425
2023-05-14T01:33:24.049Z,420
2023-05-14T01:34:24.247Z,424
2023-05-14T01:35:24.375Z,423
2023-05-14T01:36:24.455Z,422
2023-05-14T01:37:24.501Z,427
2023-05-14T01:38:24.349Z,422
2023-05-14T01:39:24.215Z,415
2023-05-14T01:40:24.637Z,407
2023-05-14T01:41:24.191Z,417
2023-05-14T01:42:23.952Z,421
2023-05-14T01:43:24.441Z,424
2023-05-14T01:44:24.968Z,429
2023-05-14T01:45:24.366Z,424
2023-05-14T01:47:24.577Z,423
2023-05-14T01:48:24.153Z,436
2023-05-14T01:49:24.306Z,425
2023-05-14T01:50:24.592Z,430
2023-05-14T01:51:24.564Z,427
2023-05-14T01:52:24.704Z,417
2023-05-14T01:53:24.721Z,429
2023-05-14T01:54:24.025Z,418
2023-05-14T01:56:24.148Z,419
2023-05-14T01:57:24.474Z,411
2023-05-14T01:58:24.425Z,410
2023-05-14T01:59:24.497Z,415
2023-05-14T02:00:25.973Z,424
2023-05-14T02:01:24.232Z,419
2023-05-14T02:02:24.386Z,424
2023-05-14T02:03:24.515Z,422
2023-05-14T02:04:23.826Z,433
2023-05-14T02:05:24.284Z,431
2023-05-14T02:06:24.489Z,423
2023-05-14T02:07:24.376Z,420
2023-05-14T02:08:24.386Z,422
2023-05-14T02:09:24.617Z,420
2023-05-14T02:10:24.447Z,418
2023-05-14T02:11:24.523Z,420
2023-05-14T02:12:24.337Z,425
2023-05-14T02:13:24.186Z,427
2023-05-14T02:14:24.303Z,431
2023-05-14T02:15:24.314Z,434
2023-05-14T02:17:24.369Z,428
2023-05-14T02:18:24.801Z,426
2023-05-14T02:19:24.218Z,423
2023-05-14T02:20:24.630Z,425
2023-05-14T02:21:24.063Z,426
2023-05-14T02:22:24.122Z,422
2023-05-14T02:23:34.080Z,427
2023-05-14T02:24:23.884Z,430
2023-05-14T02:25:23.981Z,419
2023-05-14T02:26:24.140Z,424
2023-05-14T02:27:24.522Z,427
2023-05-14T02:28:23.914Z,414
2023-05-14T02:29:24.097Z,415
2023-05-14T02:30:24.690Z,426
2023-05-14T02:31:24.194Z,429
2023-05-14T02:32:23.971Z,431
2023-05-14T02:33:24.246Z,425
2023-05-14T02:34:24.193Z,426
2023-05-14T02:35:24.308Z,431
2023-05-14T02:36:24.337Z,432
2023-05-14T02:37:24.318Z,438
2023-05-14T02:39:24.226Z,427
2023-05-14T02:40:24.478Z,424
2023-05-14T02:41:24.595Z,427
2023-05-14T02:42:24.552Z,418
2023-05-14T02:43:24.436Z,433
2023-05-14T02:44:24.433Z,430
2023-05-14T02:46:24.117Z,445
2023-05-14T02:47:24.468Z,436
2023-05-14T02:48:24.666Z,429
2023-05-14T02:49:24.422Z,428
2023-05-14T02:50:25.203Z,432
2023-05-14T02:51:24.532Z,427
2023-05-14T02:52:24.598Z,428
2023-05-14T02:53:23.896Z,427
2023-05-14T02:54:24.244Z,428
2023-05-14T02:55:24.693Z,432
2023-05-14T02:56:24.528Z,433
2023-05-14T02:57:24.212Z,429
2023-05-14T02:59:23.913Z,425
2023-05-14T03:00:25.333Z,419
2023-05-14T03:01:24.148Z,423
2023-05-14T03:02:24.286Z,425
2023-05-14T03:03:23.919Z,428
2023-05-14T03:05:24.137Z,433
2023-05-14T03:06:24.013Z,431
2023-05-14T03:07:24.328Z,439
2023-05-14T03:08:24.370Z,446
2023-05-14T03:09:24.547Z,440
2023-05-14T03:10:24.879Z,434
2023-05-14T03:11:24.291Z,435
2023-05-14T03:12:24.074Z,437
2023-05-14T03:13:24.150Z,440
2023-05-14T03:14:24.249Z,446
2023-05-14T03:15:24.619Z,441
2023-05-14T03:16:24.307Z,429
2023-05-14T03:17:24.634Z,424
2023-05-14T03:18:24.348Z,417
2023-05-14T03:19:24.514Z,425
2023-05-14T03:20:24.675Z,441
2023-05-14T03:21:23.966Z,444
2023-05-14T03:23:24.077Z,438
2023-05-14T03:24:24.194Z,426
2023-05-14T03:25:24.313Z,444
2023-05-14T03:26:24.333Z,451
2023-05-14T03:27:24.268Z,452
2023-05-14T03:28:24.148Z,447
2023-05-14T03:29:24.134Z,442
2023-05-14T03:30:24.843Z,443
2023-05-14T03:32:24.177Z,447
2023-05-14T03:33:24.020Z,443
2023-05-14T03:34:24.261Z,442
2023-05-14T03:35:24.034Z,443
2023-05-14T03:36:24.242Z,450
2023-05-14T03:38:24.090Z,441
2023-05-14T03:39:24.237Z,448
2023-05-14T03:40:24.606Z,450
2023-05-14T03:41:23.846Z,445
2023-05-14T03:42:23.968Z,439
2023-05-14T03:43:23.889Z,437
2023-05-14T03:44:24.258Z,427
2023-05-14T03:45:24.608Z,436
2023-05-14T03:46:24.681Z,432
2023-05-14T03:47:24.818Z,443
2023-05-14T03:48:38.343Z,434
2023-05-14T03:51:24.436Z,425
2023-05-14T03:53:24.232Z,422
2023-05-14T03:54:24.845Z,432
2023-05-14T03:55:24.543Z,441
2023-05-14T03:56:24.158Z,431
2023-05-14T03:57:24.274Z,427
2023-05-14T03:58:24.593Z,429
2023-05-14T03:59:23.927Z,428
2023-05-14T04:00:25.452Z,432
2023-05-14T04:01:24.007Z,430
2023-05-14T04:02:24.449Z,445
2023-05-14T04:03:24.452Z,452
2023-05-14T04:04:24.261Z,455
2023-05-14T04:05:24.533Z,451
2023-05-14T04:06:23.975Z,442
2023-05-14T04:07:24.184Z,444
2023-05-14T04:08:24.387Z,451
2023-05-14T04:09:24.733Z,445
2023-05-14T04:10:24.532Z,438
2023-05-14T04:11:24.267Z,443
2023-05-14T04:12:24.323Z,436
2023-05-14T04:13:24.429Z,442
2023-05-14T04:15:24.250Z,438
2023-05-14T04:16:24.554Z,430
2023-05-14T04:17:24.254Z,432
2023-05-14T04:18:24.594Z,434
2023-05-14T04:19:24.396Z,443
2023-05-14T04:20:24.698Z,452
2023-05-14T04:21:24.117Z,445
2023-05-14T04:22:24.205Z,439
2023-05-14T04:23:24.476Z,441
2023-05-14T04:24:24.085Z,439
2023-05-14T04:25:24.623Z,435
2023-05-14T04:26:24.233Z,442
2023-05-14T04:27:24.191Z,436
2023-05-14T04:28:24.412Z,429
2023-05-14T04:29:24.795Z,441
2023-05-14T04:30:24.711Z,440
2023-05-14T04:31:24.335Z,450
2023-05-14T04:32:24.919Z,445
2023-05-14T04:33:24.320Z,439
2023-05-14T04:34:24.634Z,434
2023-05-14T04:35:25.137Z,433
2023-05-14T04:36:24.374Z,442
2023-05-14T04:37:24.622Z,443
2023-05-14T04:38:23.928Z,440
2023-05-14T04:39:24.270Z,433
2023-05-14T04:40:24.898Z,429
2023-05-14T04:41:24.289Z,441
2023-05-14T04:42:24.410Z,448
2023-05-14T04:43:24.196Z,443
2023-05-14T04:44:24.584Z,447
2023-05-14T04:45:24.530Z,444
2023-05-14T04:46:24.346Z,436
2023-05-14T04:47:24.815Z,435
2023-05-14T04:48:24.152Z,440
2023-05-14T04:49:24.567Z,444
2023-05-14T04:50:24.679Z,440
2023-05-14T04:51:24.831Z,442
2023-05-14T04:52:24.557Z,439
2023-05-14T04:53:24.102Z,435
2023-05-14T04:54:24.597Z,445
2023-05-14T04:55:24.363Z,448
2023-05-14T04:56:24.917Z,441
2023-05-14T04:57:24.617Z,443
2023-05-14T04:58:24.340Z,438
2023-05-14T04:59:24.825Z,421
2023-05-14T05:01:24.587Z,423
2023-05-14T05:02:24.481Z,422
2023-05-14T05:03:24.402Z,415
2023-05-14T05:04:23.948Z,417
2023-05-14T05:05:24.420Z,421
2023-05-14T05:06:24.423Z,419
2023-05-14T05:08:24.022Z,427
2023-05-14T05:09:24.372Z,413
2023-05-14T05:10:24.712Z,414
2023-05-14T05:11:24.057Z,412
2023-05-14T05:12:24.376Z,407
2023-05-14T05:13:24.458Z,416
2023-05-14T05:14:24.643Z,429
2023-05-14T05:15:26.524Z,417
2023-05-14T05:16:24.414Z,422
2023-05-14T05:17:24.935Z,414
2023-05-14T05:18:24.242Z,410
2023-05-14T05:19:35.723Z,404
2023-05-14T05:20:24.570Z,411
2023-05-14T05:21:24.151Z,413
2023-05-14T05:22:24.190Z,412
2023-05-14T05:23:24.430Z,411
2023-05-14T05:25:24.165Z,408
2023-05-14T05:26:24.548Z,415
2023-05-14T05:27:24.233Z,423
2023-05-14T05:28:24.677Z,410
2023-05-14T05:29:24.297Z,411
2023-05-14T05:30:24.909Z,413
2023-05-14T05:31:24.160Z,409
2023-05-14T05:32:24.647Z,408
2023-05-14T05:33:23.908Z,407
2023-05-14T05:34:24.509Z,417
2023-05-14T05:35:24.663Z,415
2023-05-14T05:36:24.142Z,404
2023-05-14T05:37:24.517Z,395
2023-05-14T05:39:24.747Z,406
2023-05-14T05:40:24.316Z,403
2023-05-14T05:41:24.573Z,386
2023-05-14T05:42:24.558Z,396
2023-05-14T05:44:24.330Z,394
2023-05-14T05:46:24.313Z,393
2023-05-14T05:47:24.963Z,390
2023-05-14T05:48:24.644Z,376
2023-05-14T05:49:24.449Z,384
2023-05-14T05:50:24.515Z,377
2023-05-14T05:51:24.360Z,382
2023-05-14T05:52:24.825Z,381
2023-05-14T05:53:24.377Z,392
2023-05-14T05:54:24.906Z,395
2023-05-14T05:55:24.499Z,387
2023-05-14T05:56:24.193Z,380
2023-05-14T05:57:29.678Z,385
2023-05-14T05:58:24.416Z,384
2023-05-14T05:59:24.977Z,381
2023-05-14T06:01:29.691Z,375
2023-05-14T06:02:24.262Z,388
2023-05-14T06:03:23.944Z,390
2023-05-14T06:04:24.407Z,388
2023-05-14T06:05:24.644Z,374
2023-05-14T06:06:24.142Z,368
2023-05-14T06:07:24.332Z,367
2023-05-14T06:08:24.426Z,371
2023-05-14T06:09:24.058Z,363
2023-05-14T06:10:24.755Z,365
2023-05-14T06:11:32.454Z,375
2023-05-14T06:12:24.550Z,373
2023-05-14T06:13:38.351Z,362
2023-05-14T06:14:24.620Z,359
2023-05-14T06:15:24.115Z,364
2023-05-14T06:16:24.120Z,367
2023-05-14T06:17:24.443Z,360
2023-05-14T06:18:24.607Z,364
2023-05-14T06:19:24.118Z,363
2023-05-14T06:20:24.688Z,362
2023-05-14T06:21:24.216Z,365
2023-05-14T06:22:24.476Z,358
2023-05-14T06:23:24.491Z,359
2023-05-14T06:24:24.108Z,354
2023-05-14T06:25:24.381Z,347
2023-05-14T06:26:24.533Z,349
2023-05-14T06:27:23.979Z,348
2023-05-14T06:28:24.281Z,350
2023-05-14T06:29:24.569Z,355
2023-05-14T06:30:24.625Z,363
2023-05-14T06:31:24.230Z,356
2023-05-14T06:33:24.194Z,361
2023-05-14T06:34:24.459Z,345
2023-05-14T06:35:24.506Z,356
2023-05-14T06:36:23.851Z,358
2023-05-14T06:37:24.284Z,355
2023-05-14T06:38:24.438Z,362
2023-05-14T06:39:24.899Z,354
2023-05-14T06:40:24.745Z,353
2023-05-14T06:41:24.293Z,351
2023-05-14T06:42:24.522Z,348
2023-05-14T06:43:24.449Z,342
2023-05-14T06:44:23.750Z,345
2023-05-14T06:45:24.592Z,348
2023-05-14T06:46:24.121Z,351
2023-05-14T06:47:24.604Z,343
2023-05-14T06:49:24.137Z,344
2023-05-14T06:50:24.747Z,350
2023-05-14T06:51:24.586Z,347
2023-05-14T06:52:24.023Z,342
2023-05-14T06:53:24.431Z,345
2023-05-14T06:54:24.627Z,352
2023-05-14T06:55:24.432Z,357
2023-05-14T06:56:23.993Z,350
2023-05-14T06:57:24.729Z,347
2023-05-14T06:58:24.304Z,350
2023-05-14T06:59:24.876Z,352
2023-05-14T07:00:26.041Z,353
2023-05-14T07:02:28.386Z,353
2023-05-14T07:03:23.811Z,348
2023-05-14T07:04:24.418Z,352
2023-05-14T07:05:24.351Z,354
2023-05-14T07:06:24.744Z,355
2023-05-14T07:07:24.101Z,354
2023-05-14T07:08:24.436Z,349
2023-05-14T07:09:24.744Z,351
2023-05-14T07:10:24.647Z,366
2023-05-14T07:11:24.505Z,369
2023-05-14T07:13:24.955Z,365
2023-05-14T07:14:24.212Z,356
2023-05-14T07:16:24.492Z,361
2023-05-14T07:17:24.741Z,359
2023-05-14T07:19:24.539Z,355
2023-05-14T07:20:24.599Z,350
2023-05-14T07:21:24.257Z,371
2023-05-14T07:22:24.350Z,369
2023-05-14T07:23:24.665Z,346
2023-05-14T07:24:24.182Z,361
2023-05-14T07:25:24.506Z,362
2023-05-14T07:26:24.696Z,366
2023-05-14T07:28:24.500Z,348
2023-05-14T07:29:24.518Z,354
2023-05-14T07:30:25.172Z,349
2023-05-14T07:31:24.803Z,350
2023-05-14T07:32:24.270Z,364
2023-05-14T07:33:23.962Z,360
2023-05-14T07:34:24.587Z,352
2023-05-14T07:35:24.023Z,353
2023-05-14T07:36:24.354Z,352
2023-05-14T07:38:24.520Z,360
2023-05-14T07:40:24.862Z,350
2023-05-14T07:41:24.542Z,359
2023-05-14T07:42:34.543Z,366
2023-05-14T07:43:24.069Z,361
2023-05-14T07:44:24.319Z,355
2023-05-14T07:45:24.635Z,349
2023-05-14T07:46:24.187Z,350
2023-05-14T07:47:24.704Z,348
2023-05-14T07:48:24.338Z,362
2023-05-14T07:49:24.193Z,352
2023-05-14T07:50:25.121Z,357
2023-05-14T07:52:24.238Z,358
2023-05-14T07:53:24.770Z,352
2023-05-14T07:54:24.518Z,345
2023-05-14T07:55:24.917Z,340
2023-05-14T07:56:24.550Z,353
2023-05-14T07:57:24.085Z,362
2023-05-14T07:58:24.736Z,355
2023-05-14T07:59:24.889Z,348
2023-05-14T08:00:25.887Z,343
2023-05-14T08:01:24.645Z,349
2023-05-14T08:02:24.593Z,350
2023-05-14T08:03:24.510Z,345
2023-05-14T08:04:24.860Z,338
2023-05-14T08:05:24.925Z,340
2023-05-14T08:06:24.728Z,343
2023-05-14T08:07:24.428Z,344
2023-05-14T08:08:24.796Z,342
2023-05-14T08:09:24.331Z,346
2023-05-14T08:11:24.178Z,353
2023-05-14T08:12:24.746Z,349
2023-05-14T08:13:24.598Z,348
2023-05-14T08:14:24.273Z,349
2023-05-14T08:16:24.552Z,350
2023-05-14T08:18:24.254Z,346
2023-05-14T08:19:24.546Z,343
2023-05-14T08:20:24.743Z,350
2023-05-14T08:21:24.606Z,346
2023-05-14T08:22:29.412Z,351
2023-05-14T08:23:24.932Z,345
2023-05-14T08:24:29.618Z,340
2023-05-14T08:25:24.474Z,343
2023-05-14T08:26:24.061Z,342
2023-05-14T08:27:24.674Z,336
2023-05-14T08:28:32.113Z,342
2023-05-14T08:29:24.234Z,344
2023-05-14T08:31:24.572Z,343
2023-05-14T08:32:32.217Z,351
2023-05-14T08:33:24.381Z,355
2023-05-14T08:34:24.790Z,347
2023-05-14T08:35:24.745Z,345
2023-05-14T08:37:24.248Z,347
2023-05-14T08:38:24.815Z,341
2023-05-14T08:39:24.437Z,343
2023-05-14T08:40:25.188Z,337
2023-05-14T08:41:24.205Z,336
2023-05-14T08:42:24.484Z,337
2023-05-14T08:43:24.076Z,340
2023-05-14T08:44:24.567Z,342
2023-05-14T08:45:24.336Z,352
2023-05-14T08:46:24.312Z,354
2023-05-14T08:47:25.083Z,344
2023-05-14T08:48:24.910Z,335
2023-05-14T08:49:24.358Z,333
2023-05-14T08:50:25.361Z,336
2023-05-14T08:51:24.259Z,337
2023-05-14T08:52:24.664Z,335
2023-05-14T08:53:24.462Z,340
2023-05-14T08:54:43.270Z,339
2023-05-14T08:55:25.084Z,336
2023-05-14T08:56:24.666Z,335
2023-05-14T08:57:24.214Z,332
2023-05-14T08:58:24.371Z,337
2023-05-14T08:59:24.683Z,333
2023-05-14T09:00:25.807Z,329
2023-05-14T09:01:24.627Z,340
2023-05-14T09:02:43.682Z,348
2023-05-14T09:03:24.452Z,338
2023-05-14T09:04:46.382Z,334
2023-05-14T09:05:24.562Z,333
2023-05-14T09:07:24.714Z,346
2023-05-14T09:08:24.569Z,342
2023-05-14T09:09:24.122Z,343
2023-05-14T09:10:25.035Z,346
2023-05-14T09:11:24.803Z,339
2023-05-14T09:12:24.201Z,342
2023-05-14T09:13:25.763Z,334
2023-05-14T09:14:24.640Z,333
2023-05-14T09:15:24.424Z,337
2023-05-14T09:16:24.385Z,335
2023-05-14T09:17:24.143Z,336
2023-05-14T09:18:24.974Z,347
2023-05-14T09:19:25.029Z,351
2023-05-14T09:20:25.538Z,340
2023-05-14T09:21:24.534Z,333
2023-05-14T09:22:24.332Z,334
2023-05-14T09:23:24.154Z,340
2023-05-14T09:24:24.938Z,335
2023-05-14T09:25:24.737Z,340
2023-05-14T09:26:24.546Z,329
2023-05-14T09:27:24.389Z,347
2023-05-14T09:28:24.593Z,349
2023-05-14T09:29:24.247Z,342
2023-05-14T09:30:25.292Z,337
2023-05-14T09:31:24.687Z,331
2023-05-14T09:33:28.101Z,327
2023-05-14T09:34:24.634Z,323
2023-05-14T09:35:24.400Z,318
2023-05-14T09:36:24.610Z,314
2023-05-14T09:37:24.230Z,330
2023-05-14T09:38:24.775Z,332
2023-05-14T09:40:24.860Z,329
2023-05-14T09:41:24.623Z,340
2023-05-14T09:42:24.364Z,343
2023-05-14T09:43:24.502Z,335
2023-05-14T09:44:24.189Z,338
2023-05-14T09:45:24.983Z,346
2023-05-14T09:46:24.592Z,351
2023-05-14T09:47:24.276Z,342
2023-05-14T09:48:24.459Z,341
2023-05-14T09:49:24.552Z,344
2023-05-14T09:50:24.672Z,327
2023-05-14T09:51:24.351Z,333
2023-05-14T09:52:24.641Z,340
2023-05-14T09:53:24.367Z,329
2023-05-14T09:54:24.738Z,334
2023-05-14T09:55:24.610Z,336
2023-05-14T09:56:24.260Z,327
2023-05-14T09:58:24.455Z,331
2023-05-14T09:59:24.298Z,339
2023-05-14T10:00:25.950Z,338
2023-05-14T10:01:24.807Z,340
2023-05-14T10:02:24.808Z,339
2023-05-14T10:03:24.451Z,335
2023-05-14T10:04:24.894Z,326
2023-05-14T10:05:24.738Z,339
2023-05-14T10:06:24.446Z,344
2023-05-14T10:07:24.076Z,338
2023-05-14T10:08:24.521Z,331
2023-05-14T10:09:24.181Z,332
2023-05-14T10:10:25.525Z,325
2023-05-14T10:11:24.110Z,338
2023-05-14T10:12:24.620Z,337
2023-05-14T10:13:24.241Z,322
2023-05-14T10:14:24.780Z,323
2023-05-14T10:15:24.668Z,327
2023-05-14T10:16:24.413Z,337
2023-05-14T10:17:24.417Z,339
2023-05-14T10:18:24.856Z,338
2023-05-14T10:19:24.673Z,337
2023-05-14T10:20:25.125Z,336
2023-05-14T10:21:24.181Z,342
2023-05-14T10:22:24.986Z,335
2023-05-14T10:23:24.275Z,333
2023-05-14T10:24:24.804Z,337
2023-05-14T10:25:24.624Z,329
2023-05-14T10:26:24.531Z,333
2023-05-14T10:27:24.178Z,339
2023-05-14T10:28:24.434Z,344
2023-05-14T10:29:24.814Z,334
2023-05-14T10:30:24.929Z,340
2023-05-14T10:31:24.614Z,334
2023-05-14T10:32:24.431Z,333
2023-05-14T10:33:24.637Z,324
2023-05-14T10:34:24.686Z,332
2023-05-14T10:35:24.242Z,340
2023-05-14T10:36:24.709Z,338
2023-05-14T10:37:24.015Z,325
2023-05-14T10:38:24.551Z,320
2023-05-14T10:39:24.200Z,321
2023-05-14T10:40:25.136Z,330
2023-05-14T10:41:24.672Z,327
2023-05-14T10:42:24.172Z,332
2023-05-14T10:43:23.950Z,328
2023-05-14T10:45:29.328Z,337
2023-05-14T10:46:24.833Z,343
2023-05-14T10:47:29.630Z,355
2023-05-14T10:48:24.157Z,350
2023-05-14T10:49:43.003Z,349
2023-05-14T10:50:24.548Z,347
2023-05-14T10:51:29.468Z,339
2023-05-14T10:52:24.174Z,344
2023-05-14T10:53:29.757Z,343
2023-05-14T10:54:24.521Z,336
2023-05-14T10:55:24.462Z,329
2023-05-14T10:56:24.219Z,319
2023-05-14T10:57:24.024Z,329
2023-05-14T10:58:24.304Z,340
2023-05-14T10:59:24.343Z,341
2023-05-14T11:00:25.623Z,334
2023-05-14T11:01:24.414Z,325
2023-05-14T11:02:24.018Z,338
2023-05-14T11:03:24.669Z,349
2023-05-14T11:04:24.384Z,346
2023-05-14T11:06:24.616Z,345
2023-05-14T11:07:24.211Z,343
2023-05-14T11:08:27.004Z,335
2023-05-14T11:09:24.698Z,339
2023-05-14T11:10:24.657Z,343
2023-05-14T11:11:38.514Z,330
2023-05-14T11:12:24.329Z,338
2023-05-14T11:13:24.140Z,342
2023-05-14T11:14:24.716Z,345
2023-05-14T11:15:24.717Z,338
2023-05-14T11:16:24.415Z,325
2023-05-14T11:17:24.292Z,329
2023-05-14T11:18:24.401Z,336
2023-05-14T11:19:43.762Z,341
2023-05-14T11:20:24.489Z,345
2023-05-14T11:21:24.386Z,341
2023-05-14T11:22:24.219Z,360
2023-05-14T11:23:24.726Z,362
2023-05-14T11:24:24.260Z,351
2023-05-14T11:25:24.876Z,341
2023-05-14T11:26:24.493Z,343
2023-05-14T11:27:24.230Z,334
2023-05-14T11:28:24.851Z,340
2023-05-14T11:29:24.571Z,345
2023-05-14T11:30:24.849Z,342
2023-05-14T11:31:24.771Z,338
2023-05-14T11:32:24.268Z,330
2023-05-14T11:33:23.982Z,328
2023-05-14T11:34:24.597Z,348
2023-05-14T11:35:24.220Z,349
2023-05-14T11:36:24.716Z,340
2023-05-14T11:37:24.589Z,334
2023-05-14T11:38:24.146Z,340
2023-05-14T11:39:24.730Z,342
2023-05-14T11:40:24.661Z,338
2023-05-14T11:41:24.577Z,337
2023-05-14T11:42:24.536Z,327
2023-05-14T11:44:24.794Z,348
2023-05-14T11:45:24.697Z,346
2023-05-14T11:46:24.441Z,352
2023-05-14T11:47:24.232Z,361
2023-05-14T11:48:24.413Z,346
2023-05-14T11:50:28.741Z,344
2023-05-14T11:51:24.617Z,341
2023-05-14T11:52:24.236Z,326
2023-05-14T11:53:24.824Z,316
2023-05-14T11:54:24.510Z,331
2023-05-14T11:55:24.309Z,333
2023-05-14T11:56:25.098Z,323
2023-05-14T11:57:24.804Z,338
2023-05-14T11:58:24.557Z,340
2023-05-14T11:59:24.249Z,347
2023-05-14T12:00:25.805Z,342
2023-05-14T12:01:24.419Z,340
2023-05-14T12:02:24.214Z,344
2023-05-14T12:03:24.849Z,353
2023-05-14T12:04:24.264Z,351
2023-05-14T12:05:24.127Z,355
2023-05-14T12:07:24.578Z,341
2023-05-14T12:08:23.768Z,351
2023-05-14T12:09:24.253Z,349
2023-05-14T12:10:25.114Z,342
2023-05-14T12:11:24.626Z,340
2023-05-14T12:12:24.281Z,346
2023-05-14T12:13:24.225Z,332
2023-05-14T12:14:24.952Z,326
2023-05-14T12:15:24.552Z,338
2023-05-14T12:16:24.544Z,339
2023-05-14T12:17:24.654Z,326
2023-05-14T12:18:25.341Z,321
2023-05-14T12:19:24.392Z,329
2023-05-14T12:20:24.456Z,340
2023-05-14T12:21:24.250Z,351
2023-05-14T12:22:24.810Z,356
2023-05-14T12:23:24.133Z,348
2023-05-14T12:24:24.645Z,359
2023-05-14T12:25:24.491Z,357
2023-05-14T12:26:24.081Z,351
2023-05-14T12:27:24.456Z,355
2023-05-14T12:28:24.751Z,357
2023-05-14T12:29:24.323Z,353
2023-05-14T12:30:24.845Z,349
2023-05-14T12:31:24.579Z,347
2023-05-14T12:32:24.357Z,352
2023-05-14T12:33:24.239Z,348
2023-05-14T12:35:24.539Z,338
2023-05-14T12:36:24.238Z,344
2023-05-14T12:37:24.460Z,353
2023-05-14T12:38:24.260Z,349
2023-05-14T12:40:24.695Z,344
2023-05-14T12:41:24.297Z,338
2023-05-14T12:42:24.645Z,349
2023-05-14T12:43:24.423Z,354
2023-05-14T12:44:24.437Z,347
2023-05-14T12:46:24.558Z,361
2023-05-14T12:47:24.678Z,369
2023-05-14T12:48:24.657Z,367
2023-05-14T12:49:24.509Z,369
2023-05-14T12:50:24.821Z,365
2023-05-14T12:51:24.823Z,348
2023-05-14T12:52:36.643Z,342
2023-05-14T12:53:24.851Z,347
2023-05-14T12:54:24.382Z,353
2023-05-14T12:55:24.996Z,341
2023-05-14T12:56:24.476Z,335
2023-05-14T12:57:24.344Z,345
2023-05-14T12:58:24.271Z,340
2023-05-14T12:59:25.173Z,350
2023-05-14T13:00:25.707Z,348
2023-05-14T13:01:24.465Z,351
2023-05-14T13:02:24.405Z,339
2023-05-14T13:03:24.805Z,330
2023-05-14T13:04:24.448Z,331
2023-05-14T13:05:24.817Z,335
2023-05-14T13:06:24.525Z,330
2023-05-14T13:07:24.308Z,319
2023-05-14T13:09:24.747Z,324
2023-05-14T13:10:24.841Z,315
2023-05-14T13:11:24.559Z,312
2023-05-14T13:12:24.323Z,324
2023-05-14T13:13:24.256Z,331
2023-05-14T13:14:24.571Z,332
2023-05-14T13:15:24.903Z,335
2023-05-14T13:16:24.716Z,340
2023-05-14T13:17:24.571Z,329
2023-05-14T13:18:24.425Z,323
2023-05-14T13:19:24.363Z,336
2023-05-14T13:20:24.849Z,338
2023-05-14T13:21:24.615Z,349
2023-05-14T13:22:24.545Z,351
2023-05-14T13:23:24.548Z,340
2023-05-14T13:24:24.512Z,336
2023-05-14T13:25:24.700Z,337
2023-05-14T13:26:24.651Z,344
2023-05-14T13:27:24.282Z,343
2023-05-14T13:28:24.894Z,342
2023-05-14T13:29:24.725Z,338
2023-05-14T13:30:24.561Z,335
2023-05-14T13:31:24.402Z,336
2023-05-14T13:32:24.141Z,338
2023-05-14T13:33:24.488Z,346
2023-05-14T13:34:24.497Z,340
2023-05-14T13:35:24.668Z,334
2023-05-14T13:36:24.559Z,342
2023-05-14T13:37:24.318Z,332
2023-05-14T13:38:24.780Z,339
2023-05-14T13:39:24.512Z,334
2023-05-14T13:40:24.428Z,339
2023-05-14T13:41:24.763Z,337
2023-05-14T13:42:24.530Z,332
2023-05-14T13:43:24.300Z,327
2023-05-14T13:44:25.101Z,335
2023-05-14T13:45:24.876Z,333
2023-05-14T13:46:24.359Z,325
2023-05-14T13:49:24.708Z,329
2023-05-14T13:50:43.642Z,324
2023-05-14T13:51:25.001Z,322
2023-05-14T13:53:24.253Z,326
2023-05-14T13:54:24.490Z,332
2023-05-14T13:55:24.437Z,335
2023-05-14T13:56:24.295Z,345
2023-05-14T13:57:24.599Z,343
2023-05-14T13:58:24.353Z,340
2023-05-14T13:59:25.080Z,346
2023-05-14T14:00:47.587Z,343
2023-05-14T14:01:26.062Z,336
2023-05-14T14:04:24.544Z,342
2023-05-14T14:05:24.533Z,343
2023-05-14T14:07:24.775Z,330
2023-05-14T14:08:24.807Z,323
2023-05-14T14:09:24.711Z,330
2023-05-14T14:10:24.440Z,335
2023-05-14T14:11:24.943Z,340
2023-05-14T14:12:24.433Z,347
2023-05-14T14:13:24.351Z,336
2023-05-14T14:14:24.860Z,331
2023-05-14T14:15:24.933Z,329
2023-05-14T14:16:24.726Z,325
2023-05-14T14:17:24.451Z,331
2023-05-14T14:18:24.431Z,345
2023-05-14T14:19:24.702Z,338
2023-05-14T14:20:24.502Z,330
2023-05-14T14:21:24.298Z,327
2023-05-14T14:22:27.252Z,320
2023-05-14T14:23:24.498Z,322
2023-05-14T14:24:24.765Z,330
2023-05-14T14:25:25.123Z,341
2023-05-14T14:26:25.269Z,340
2023-05-14T14:27:24.893Z,345
2023-05-14T14:28:24.650Z,337
2023-05-14T14:29:24.798Z,335
2023-05-14T14:30:24.799Z,327
2023-05-14T14:31:24.604Z,325
2023-05-14T14:32:24.456Z,338
2023-05-14T14:33:24.065Z,343
2023-05-14T14:36:24.522Z,338
2023-05-14T14:37:24.360Z,347
2023-05-14T14:38:24.528Z,346
2023-05-14T14:39:25.153Z,343
2023-05-14T14:40:24.676Z,338
2023-05-14T14:41:24.345Z,327
2023-05-14T14:42:24.859Z,323
2023-05-14T14:43:24.450Z,324
2023-05-14T14:44:24.876Z,333
2023-05-14T14:45:24.822Z,342
2023-05-14T14:46:24.599Z,350
2023-05-14T14:47:24.556Z,344
2023-05-14T14:49:24.123Z,346
2023-05-14T14:50:24.745Z,348
2023-05-14T14:51:24.475Z,343
2023-05-14T14:52:24.400Z,349